Time;durP1;ratioP1;P1;durP2;ratioP2;P2;SDS_P1;SDS_P2;PMS_P1;PMS_P2;Temp;Humidity;BMP_temperature;BMP_pressure;BME280_temperature;BME280_humidity;BME280_pressure;Samples;Min_cycle;Max_cycle;Signal;HPM_P1;HPM_P2
2021/10/05 00:00:32;;;;;;;0.30;0.20;;;11.20;99.90;;;;;;4964634;28;20636;-63
2021/10/05 00:02:58;;;;;;;0.30;0.10;;;11.10;99.90;;;;;;4963977;28;20185;-63
2021/10/05 00:05:24;;;;;;;0.30;0.20;;;11.00;99.90;;;;;;4963151;28;20271;-64
2021/10/05 00:07:50;;;;;;;0.30;0.20;;;11.00;99.90;;;;;;4958812;28;20259;-65
2021/10/05 00:10:16;;;;;;;0.30;0.20;;;11.00;99.90;;;;;;4956858;28;20578;-65
2021/10/05 00:12:41;;;;;;;0.40;0.35;;;11.00;99.90;;;;;;4957600;28;20428;-65
2021/10/05 00:15:10;;;;;;;0.30;0.20;;;11.00;99.90;;;;;;4957443;28;20199;-64
2021/10/05 00:17:36;;;;;;;0.30;0.20;;;11.00;99.90;;;;;;4956495;29;20216;-63
2021/10/05 00:20:02;;;;;;;0.30;0.20;;;11.00;99.90;;;;;;4960263;28;20195;-66
2021/10/05 00:22:28;;;;;;;0.30;0.10;;;10.90;99.90;;;;;;4957276;28;20183;-65
2021/10/05 00:24:53;;;;;;;0.30;0.20;;;10.90;99.90;;;;;;4957662;28;20180;-66
2021/10/05 00:27:19;;;;;;;0.30;0.20;;;10.90;99.90;;;;;;4957157;28;20200;-64
2021/10/05 00:29:44;;;;;;;0.20;0.10;;;10.80;99.90;;;;;;4957472;28;20191;-65
2021/10/05 00:32:10;;;;;;;0.30;0.20;;;10.90;99.90;;;;;;4957269;28;20181;-65
2021/10/05 00:34:36;;;;;;;0.30;0.10;;;10.90;99.90;;;;;;4956212;28;20215;-65
2021/10/05 00:37:01;;;;;;;0.30;0.20;;;10.90;99.90;;;;;;4956911;28;20676;-65
2021/10/05 00:39:27;;;;;;;0.50;0.40;;;10.80;99.90;;;;;;4956604;28;20232;-65
2021/10/05 00:41:55;;;;;;;0.30;0.20;;;10.70;99.90;;;;;;4955895;28;20699;-64
2021/10/05 00:44:31;;;;;;;0.30;0.20;;;10.70;99.90;;;;;;4956795;28;20263;-66
2021/10/05 00:47:02;;;;;;;0.30;0.30;;;10.70;99.90;;;;;;4957079;28;20534;-64
2021/10/05 00:49:28;;;;;;;0.30;0.20;;;10.70;99.90;;;;;;4956521;28;20203;-65
2021/10/05 00:51:54;;;;;;;0.30;0.20;;;10.80;99.90;;;;;;4956699;28;20226;-64
2021/10/05 00:54:20;;;;;;;0.30;0.17;;;10.80;99.90;;;;;;4956753;28;20684;-63
2021/10/05 00:56:45;;;;;;;0.30;0.10;;;10.80;99.90;;;;;;4955537;28;20326;-65
2021/10/05 00:59:11;;;;;;;0.30;0.17;;;10.80;99.90;;;;;;4956602;28;20246;-65
2021/10/05 01:01:36;;;;;;;0.30;0.10;;;10.80;99.90;;;;;;4956558;28;20198;-64
2021/10/05 01:04:02;;;;;;;0.30;0.20;;;10.80;99.90;;;;;;4956826;28;20195;-65
2021/10/05 01:06:28;;;;;;;0.30;0.20;;;10.80;99.90;;;;;;4956808;28;20203;-63
2021/10/05 01:08:54;;;;;;;0.30;0.30;;;10.80;99.90;;;;;;4956653;28;20184;-63
2021/10/05 01:11:19;;;;;;;0.30;0.20;;;10.90;99.90;;;;;;4957210;28;20184;-63
2021/10/05 01:13:45;;;;;;;0.30;0.20;;;11.10;99.90;;;;;;4956935;28;20180;-63
2021/10/05 01:16:10;;;;;;;0.30;0.20;;;11.20;99.90;;;;;;4956537;28;20237;-63
2021/10/05 01:18:36;;;;;;;0.20;0.10;;;11.30;99.90;;;;;;4956186;28;20622;-63
2021/10/05 01:21:05;;;;;;;0.47;0.40;;;11.10;99.90;;;;;;4956892;28;20188;-64
2021/10/05 01:23:33;;;;;;;0.30;0.20;;;11.10;99.90;;;;;;4956367;28;20673;-65
2021/10/05 01:25:59;;;;;;;0.30;0.20;;;11.10;99.90;;;;;;4955405;28;20211;-64
2021/10/05 01:28:26;;;;;;;0.30;0.15;;;11.20;99.90;;;;;;4955922;28;20592;-65
2021/10/05 01:30:53;;;;;;;0.80;0.60;;;11.20;99.90;;;;;;4956547;28;20181;-64
2021/10/05 01:33:21;;;;;;;0.30;0.20;;;11.00;99.90;;;;;;4955415;28;20246;-64
2021/10/05 01:35:46;;;;;;;0.47;0.47;;;11.00;99.90;;;;;;4956836;28;20188;-66
2021/10/05 01:38:12;;;;;;;0.30;0.10;;;11.10;99.90;;;;;;4956174;28;20518;-66
2021/10/05 01:40:37;;;;;;;0.30;0.20;;;11.10;99.90;;;;;;4956009;28;20211;-66
2021/10/05 01:43:03;;;;;;;0.30;0.10;;;11.10;99.90;;;;;;4956191;28;20176;-66
2021/10/05 01:45:30;;;;;;;0.30;0.20;;;11.20;99.90;;;;;;4955949;28;20176;-65
2021/10/05 01:47:56;;;;;;;0.30;0.10;;;11.10;99.90;;;;;;4954819;28;20443;-65
2021/10/05 01:50:21;;;;;;;0.30;0.20;;;11.00;99.90;;;;;;4955623;28;20187;-65
2021/10/05 01:52:48;;;;;;;0.30;0.23;;;11.10;99.90;;;;;;4955364;28;20188;-65
2021/10/05 01:55:13;;;;;;;0.30;0.20;;;11.00;99.90;;;;;;4955918;28;20290;-65
2021/10/05 01:57:39;;;;;;;0.70;0.70;;;11.20;99.90;;;;;;4955511;28;20306;-65
2021/10/05 02:00:07;;;;;;;0.30;0.20;;;11.10;99.90;;;;;;4955348;28;20259;-65
2021/10/05 02:02:33;;;;;;;0.30;0.20;;;11.10;99.90;;;;;;4955471;28;20649;-65
2021/10/05 02:04:58;;;;;;;0.30;0.20;;;11.00;99.90;;;;;;4955566;28;20199;-65
2021/10/05 02:07:27;;;;;;;0.30;0.10;;;11.10;99.90;;;;;;4956674;28;20278;-67
2021/10/05 02:09:52;;;;;;;0.28;0.17;;;11.10;99.90;;;;;;4958102;28;20219;-67
2021/10/05 02:12:18;;;;;;;0.30;0.20;;;11.10;99.90;;;;;;4956078;28;20626;-67
2021/10/05 02:14:46;;;;;;;0.30;0.20;;;11.00;99.90;;;;;;4956273;28;20192;-68
2021/10/05 02:17:13;;;;;;;0.30;0.10;;;11.00;99.90;;;;;;4956334;28;20704;-65
2021/10/05 02:19:39;;;;;;;0.30;0.20;;;11.20;99.90;;;;;;4955738;28;20510;-64
2021/10/05 02:22:05;;;;;;;0.30;0.20;;;11.20;99.90;;;;;;4955350;28;20184;-64
2021/10/05 02:24:44;;;;;;;0.30;0.17;;;11.10;99.90;;;;;;4955487;28;20466;-65
2021/10/05 02:27:20;;;;;;;0.30;0.20;;;11.00;99.90;;;;;;4954284;28;20227;-66
2021/10/05 02:29:46;;;;;;;0.68;0.68;;;10.90;99.90;;;;;;4955224;28;20266;-66
2021/10/05 02:32:13;;;;;;;0.30;0.20;;;10.90;99.90;;;;;;4955511;28;20181;-66
2021/10/05 02:34:40;;;;;;;1.27;1.23;;;10.80;99.90;;;;;;4954286;28;20188;-66
2021/10/05 02:37:06;;;;;;;0.30;0.30;;;10.70;99.90;;;;;;4955506;28;20212;-65
2021/10/05 02:39:33;;;;;;;0.30;0.17;;;10.60;99.90;;;;;;4955084;28;20645;-64
2021/10/05 02:41:58;;;;;;;0.43;0.43;;;10.70;99.90;;;;;;4955225;28;20210;-64
2021/10/05 02:44:24;;;;;;;0.40;0.40;;;10.80;99.90;;;;;;4955288;28;20270;-64
2021/10/05 02:46:50;;;;;;;2.77;0.80;;;10.80;99.90;;;;;;4955397;28;20180;-64
2021/10/05 02:49:16;;;;;;;0.60;0.52;;;10.80;99.90;;;;;;4954853;28;20180;-65
2021/10/05 02:51:41;;;;;;;0.30;0.20;;;10.60;99.90;;;;;;4955266;28;20180;-64
2021/10/05 02:54:07;;;;;;;0.70;0.53;;;10.60;99.90;;;;;;4955208;28;20187;-64
2021/10/05 02:56:33;;;;;;;0.30;0.10;;;10.50;99.90;;;;;;4955090;28;20204;-64
2021/10/05 02:58:59;;;;;;;0.30;0.20;;;10.50;99.90;;;;;;4954972;28;20549;-64
2021/10/05 03:01:25;;;;;;;0.30;0.20;;;10.50;99.90;;;;;;4955455;28;20272;-64
2021/10/05 03:03:50;;;;;;;0.30;0.20;;;10.60;99.90;;;;;;4955620;28;20239;-64
2021/10/05 03:06:16;;;;;;;0.30;0.20;;;10.70;99.90;;;;;;4958765;28;20187;-64
2021/10/05 03:08:42;;;;;;;0.30;0.20;;;10.60;99.90;;;;;;4957578;28;20234;-64
2021/10/05 03:11:09;;;;;;;0.30;0.10;;;10.60;99.90;;;;;;4958778;28;20626;-64
2021/10/05 03:13:35;;;;;;;2.65;0.50;;;10.50;99.90;;;;;;4958727;28;20188;-64
2021/10/05 03:16:05;;;;;;;0.30;0.30;;;10.40;99.90;;;;;;4958461;28;20207;-64
2021/10/05 03:18:31;;;;;;;0.55;0.55;;;10.50;99.90;;;;;;4958118;28;20208;-64
2021/10/05 03:20:57;;;;;;;0.50;0.32;;;10.40;99.90;;;;;;4958636;28;20191;-64
2021/10/05 03:23:23;;;;;;;0.30;0.20;;;10.50;99.90;;;;;;4958485;28;20530;-64
2021/10/05 03:25:49;;;;;;;0.30;0.17;;;10.50;99.90;;;;;;4958530;28;20470;-64
2021/10/05 03:28:19;;;;;;;0.30;0.20;;;10.50;99.90;;;;;;4958379;28;20200;-65
2021/10/05 03:30:45;;;;;;;0.30;0.20;;;10.40;99.90;;;;;;4958158;28;20191;-65
2021/10/05 03:33:11;;;;;;;0.30;0.30;;;10.30;99.90;;;;;;4958124;28;20184;-67
2021/10/05 03:35:36;;;;;;;0.27;0.20;;;10.30;99.90;;;;;;4958012;28;20518;-65
2021/10/05 03:38:02;;;;;;;0.30;0.20;;;10.40;99.90;;;;;;4957724;28;20212;-66
2021/10/05 03:40:28;;;;;;;0.30;0.20;;;10.40;99.90;;;;;;4958059;28;20512;-65
2021/10/05 03:42:54;;;;;;;0.30;0.20;;;10.40;99.90;;;;;;4957947;28;20206;-65
2021/10/05 03:45:19;;;;;;;0.30;0.17;;;10.30;99.90;;;;;;4957751;28;20172;-65
2021/10/05 03:47:45;;;;;;;0.37;0.37;;;10.20;99.90;;;;;;4957970;28;20271;-65
2021/10/05 03:50:11;;;;;;;0.30;0.20;;;10.30;99.90;;;;;;4957678;28;20271;-66
2021/10/05 03:52:38;;;;;;;0.30;0.20;;;10.20;99.90;;;;;;4957686;28;20184;-66
2021/10/05 03:55:05;;;;;;;3.10;0.55;;;10.30;99.90;;;;;;4957784;29;20218;-65
2021/10/05 03:57:38;;;;;;;0.55;0.55;;;10.20;99.90;;;;;;4956811;29;20319;-65
2021/10/05 04:00:06;;;;;;;0.30;0.20;;;10.30;99.90;;;;;;4956896;28;20271;-65
2021/10/05 04:02:32;;;;;;;0.30;0.20;;;10.40;99.90;;;;;;4956927;28;20212;-63
2021/10/05 04:04:57;;;;;;;0.30;0.20;;;10.40;99.90;;;;;;4957480;28;20208;-64
2021/10/05 04:07:23;;;;;;;0.30;0.20;;;10.40;99.90;;;;;;4957643;28;20214;-64
2021/10/05 04:09:48;;;;;;;0.30;0.20;;;10.30;99.90;;;;;;4957308;28;20199;-65
2021/10/05 04:12:14;;;;;;;1.20;1.00;;;10.30;99.90;;;;;;4957412;28;20628;-64
2021/10/05 04:14:39;;;;;;;0.30;0.20;;;10.20;99.90;;;;;;4957036;28;20279;-64
2021/10/05 04:17:05;;;;;;;0.20;0.20;;;10.20;99.90;;;;;;4957018;28;20680;-63
2021/10/05 04:19:31;;;;;;;0.30;0.20;;;10.20;99.90;;;;;;4957104;28;20176;-63
2021/10/05 04:21:56;;;;;;;1.43;0.40;;;10.10;99.90;;;;;;4957285;28;20226;-64
2021/10/05 04:24:22;;;;;;;0.30;0.20;;;10.10;99.90;;;;;;4957297;28;20574;-63
2021/10/05 04:26:48;;;;;;;0.30;0.20;;;10.20;99.90;;;;;;4957090;28;20317;-63
2021/10/05 04:29:13;;;;;;;0.30;0.20;;;10.20;99.90;;;;;;4955932;28;20192;-63
2021/10/05 04:31:41;;;;;;;0.50;0.47;;;10.20;99.90;;;;;;4957059;28;20500;-62
2021/10/05 04:34:07;;;;;;;0.40;0.40;;;10.20;99.90;;;;;;4957283;28;20250;-63
2021/10/05 04:36:33;;;;;;;0.82;0.82;;;10.20;99.90;;;;;;4956996;28;20208;-63
2021/10/05 04:38:59;;;;;;;1.70;1.20;;;10.10;99.90;;;;;;4956345;28;20191;-63
2021/10/05 04:41:24;;;;;;;0.30;0.20;;;10.10;99.90;;;;;;4956947;28;20202;-63
2021/10/05 04:43:50;;;;;;;1.60;0.90;;;10.10;99.90;;;;;;4956783;28;20612;-63
2021/10/05 04:46:15;;;;;;;0.73;0.67;;;10.10;99.90;;;;;;4957251;28;20218;-63
2021/10/05 04:48:41;;;;;;;0.30;0.20;;;10.00;99.90;;;;;;4955701;28;20195;-63
2021/10/05 04:51:07;;;;;;;0.93;0.93;;;10.00;99.90;;;;;;4956630;28;20565;-64
2021/10/05 04:53:32;;;;;;;0.30;0.20;;;10.00;99.90;;;;;;4956098;29;20192;-63
2021/10/05 04:55:58;;;;;;;0.67;0.67;;;10.00;99.90;;;;;;4956533;28;20515;-63
2021/10/05 04:58:23;;;;;;;0.30;0.30;;;9.90;99.90;;;;;;4956610;28;20649;-64
2021/10/05 05:00:50;;;;;;;0.30;0.23;;;9.90;99.90;;;;;;4956375;28;20183;-63
2021/10/05 05:03:16;;;;;;;0.40;0.38;;;10.00;99.90;;;;;;4955580;28;20183;-63
2021/10/05 05:05:42;;;;;;;0.30;0.30;;;10.00;99.90;;;;;;4956354;28;20191;-63
2021/10/05 05:08:07;;;;;;;0.30;0.20;;;10.00;99.90;;;;;;4956189;28;20625;-63
2021/10/05 05:10:33;;;;;;;4.87;1.17;;;9.90;99.90;;;;;;4955289;28;20195;-64
2021/10/05 05:12:58;;;;;;;0.47;0.47;;;10.00;99.90;;;;;;4956197;28;20183;-64
2021/10/05 05:15:24;;;;;;;0.97;0.97;;;10.00;99.90;;;;;;4955968;28;20214;-63
2021/10/05 05:17:50;;;;;;;1.42;1.33;;;10.00;99.90;;;;;;4955969;28;20553;-64
2021/10/05 05:20:16;;;;;;;0.30;0.20;;;10.00;99.90;;;;;;4954956;28;20189;-64
2021/10/05 05:22:42;;;;;;;0.30;0.20;;;10.10;99.90;;;;;;4956320;28;20273;-63
2021/10/05 05:25:08;;;;;;;0.45;0.20;;;10.20;99.90;;;;;;4956025;28;20188;-63
2021/10/05 05:27:34;;;;;;;0.40;0.40;;;10.10;99.90;;;;;;4955245;28;20567;-64
2021/10/05 05:30:00;;;;;;;1.67;1.57;;;10.00;99.90;;;;;;4954563;28;20183;-64
2021/10/05 05:32:25;;;;;;;0.30;0.30;;;10.00;99.90;;;;;;4956218;28;20525;-64
2021/10/05 05:34:51;;;;;;;0.30;0.20;;;10.00;99.90;;;;;;4956026;28;20194;-63
2021/10/05 05:37:16;;;;;;;0.30;0.20;;;10.10;99.90;;;;;;4955814;28;20219;-64
2021/10/05 05:39:43;;;;;;;0.30;0.20;;;10.10;99.90;;;;;;4954598;28;20184;-64
2021/10/05 05:42:09;;;;;;;0.30;0.20;;;10.10;99.90;;;;;;4955808;28;20247;-63
2021/10/05 05:44:35;;;;;;;0.30;0.20;;;10.10;99.90;;;;;;4955685;28;20203;-64
2021/10/05 05:47:01;;;;;;;0.40;0.40;;;10.20;99.90;;;;;;4955721;28;20191;-64
2021/10/05 05:49:27;;;;;;;0.30;0.30;;;10.30;99.90;;;;;;4954571;29;20447;-64
2021/10/05 05:51:53;;;;;;;0.77;0.63;;;10.30;99.90;;;;;;4955795;28;20183;-64
2021/10/05 05:54:18;;;;;;;0.40;0.40;;;10.20;99.90;;;;;;4956768;28;20183;-65
2021/10/05 05:56:44;;;;;;;0.30;0.20;;;10.30;99.90;;;;;;4955698;28;20549;-64
2021/10/05 05:59:10;;;;;;;0.30;0.20;;;10.40;99.90;;;;;;4955356;28;20202;-64
2021/10/05 06:01:35;;;;;;;0.43;0.40;;;10.50;99.90;;;;;;4955631;28;20182;-64
2021/10/05 06:04:01;;;;;;;0.83;0.83;;;10.60;99.90;;;;;;4955611;28;20884;-65
2021/10/05 06:06:30;;;;;;;1.05;1.05;;;10.60;99.90;;;;;;4955643;28;20199;-65
2021/10/05 06:08:57;;;;;;;0.30;0.20;;;10.80;99.90;;;;;;4955070;28;20620;-64
2021/10/05 06:11:23;;;;;;;0.20;0.17;;;10.90;99.90;;;;;;4955497;28;20524;-64
2021/10/05 06:13:49;;;;;;;0.30;0.20;;;10.90;99.90;;;;;;4955762;28;20632;-66
2021/10/05 06:16:16;;;;;;;0.43;0.43;;;11.00;99.90;;;;;;4955786;28;20554;-65
2021/10/05 06:18:41;;;;;;;0.30;0.30;;;11.00;99.90;;;;;;4955271;28;20434;-64
2021/10/05 06:21:08;;;;;;;0.50;0.50;;;11.10;99.90;;;;;;4955747;28;20180;-64
2021/10/05 06:23:33;;;;;;;1.60;1.50;;;11.10;99.90;;;;;;4954527;28;20180;-64
2021/10/05 06:25:59;;;;;;;0.30;0.20;;;11.10;99.90;;;;;;4955642;28;20578;-66
2021/10/05 06:28:24;;;;;;;0.30;0.20;;;11.10;99.90;;;;;;4954981;28;20198;-66
2021/10/05 06:30:50;;;;;;;0.30;0.20;;;11.10;99.90;;;;;;4955280;28;20252;-65
2021/10/05 06:33:17;;;;;;;0.53;0.53;;;11.10;99.90;;;;;;4955262;28;20211;-67
2021/10/05 06:35:44;;;;;;;0.30;0.10;;;11.20;99.90;;;;;;4955487;28;20208;-65
2021/10/05 06:38:09;;;;;;;0.30;0.20;;;11.20;99.90;;;;;;4956250;28;20684;-65
2021/10/05 06:40:37;;;;;;;0.27;0.20;;;11.40;99.90;;;;;;4959118;28;20204;-66
2021/10/05 06:43:02;;;;;;;0.30;0.20;;;11.40;99.90;;;;;;4959119;28;20218;-67
2021/10/05 06:45:28;;;;;;;0.50;0.20;;;11.50;99.90;;;;;;4958974;28;20625;-66
2021/10/05 06:47:55;;;;;;;0.30;0.20;;;11.50;99.90;;;;;;4958684;28;21073;-67
2021/10/05 06:50:21;;;;;;;0.35;0.30;;;11.70;99.90;;;;;;4958950;28;20191;-66
2021/10/05 06:52:47;;;;;;;0.57;0.50;;;11.80;99.90;;;;;;4958884;28;20606;-66
2021/10/05 06:55:13;;;;;;;0.30;0.20;;;11.70;99.90;;;;;;4958787;28;20190;-68
2021/10/05 06:57:38;;;;;;;0.30;0.20;;;11.70;99.90;;;;;;4957787;28;20991;-66
2021/10/05 07:00:05;;;;;;;0.53;0.53;;;11.70;99.90;;;;;;4958720;28;20510;-66
2021/10/05 07:02:31;;;;;;;22.20;16.88;;;11.60;99.90;;;;;;4958608;28;20419;-65
2021/10/05 07:04:56;;;;;;;1.20;1.13;;;11.50;99.90;;;;;;4958598;28;20172;-67
2021/10/05 07:07:22;;;;;;;0.30;0.20;;;11.50;99.90;;;;;;4958589;28;20263;-65
2021/10/05 07:09:47;;;;;;;1.50;1.40;;;11.50;99.90;;;;;;4958699;28;20180;-66
2021/10/05 07:12:13;;;;;;;0.50;0.50;;;11.60;99.90;;;;;;4958654;28;20563;-67
2021/10/05 07:14:38;;;;;;;0.30;0.20;;;11.60;99.90;;;;;;4958388;28;20656;-67
2021/10/05 07:17:04;;;;;;;0.60;0.60;;;11.60;99.90;;;;;;4958884;28;20208;-68
2021/10/05 07:19:30;;;;;;;0.80;0.73;;;11.50;99.90;;;;;;4958185;28;20673;-68
2021/10/05 07:21:55;;;;;;;1.20;1.03;;;11.30;99.90;;;;;;4958388;28;20185;-67
2021/10/05 07:24:21;;;;;;;0.40;0.33;;;11.20;99.90;;;;;;4958444;28;20518;-65
2021/10/05 07:26:46;;;;;;;0.30;0.20;;;11.40;99.90;;;;;;4958046;28;20188;-65
2021/10/05 07:29:14;;;;;;;0.70;0.63;;;11.70;99.90;;;;;;4958115;28;20191;-66
2021/10/05 07:31:39;;;;;;;0.30;0.10;;;11.70;99.90;;;;;;4958202;28;20187;-66
2021/10/05 07:34:05;;;;;;;0.30;0.20;;;11.60;99.90;;;;;;4958208;28;20183;-66
2021/10/05 07:36:30;;;;;;;3.70;1.90;;;11.50;99.90;;;;;;4958126;28;20657;-66
2021/10/05 07:38:56;;;;;;;1.07;0.40;;;11.40;99.90;;;;;;4957793;28;20189;-66
2021/10/05 07:41:22;;;;;;;0.40;0.40;;;11.50;99.90;;;;;;4958315;28;20267;-65
2021/10/05 07:43:47;;;;;;;2.30;1.87;;;11.50;99.90;;;;;;4957119;28;20195;-65
2021/10/05 07:46:16;;;;;;;0.30;0.20;;;11.60;99.90;;;;;;4958398;28;20176;-65
2021/10/05 07:48:42;;;;;;;0.40;0.25;;;11.70;99.90;;;;;;4957666;28;20180;-66
2021/10/05 07:51:08;;;;;;;0.65;0.65;;;11.90;99.90;;;;;;4957564;28;20267;-66
2021/10/05 07:53:35;;;;;;;0.30;0.10;;;12.10;99.90;;;;;;4958343;28;20235;-66
2021/10/05 07:56:01;;;;;;;0.30;0.20;;;12.20;99.90;;;;;;4958123;28;20188;-68
2021/10/05 07:58:27;;;;;;;4.30;1.13;;;12.20;99.90;;;;;;4957691;28;20201;-67
2021/10/05 08:00:52;;;;;;;0.37;0.30;;;12.20;99.90;;;;;;4957855;28;20470;-66
2021/10/05 08:03:18;;;;;;;0.30;0.20;;;12.20;99.90;;;;;;4958074;28;20207;-66
2021/10/05 08:05:44;;;;;;;0.30;0.30;;;12.30;99.90;;;;;;4957732;28;20188;-67
2021/10/05 08:08:10;;;;;;;0.30;0.20;;;12.30;99.90;;;;;;4956864;29;20614;-65
2021/10/05 08:10:41;;;;;;;0.30;0.20;;;12.30;99.90;;;;;;4957987;28;20183;-65
2021/10/05 08:13:08;;;;;;;1.42;1.42;;;12.50;99.90;;;;;;4957916;28;20278;-67
2021/10/05 08:15:34;;;;;;;0.63;0.63;;;12.40;99.90;;;;;;4957493;28;20176;-66
2021/10/05 08:17:59;;;;;;;1.60;1.40;;;12.40;99.90;;;;;;4957053;28;20230;-66
2021/10/05 08:20:26;;;;;;;0.30;0.27;;;12.30;99.90;;;;;;4956272;28;20180;-66
2021/10/05 08:22:53;;;;;;;0.40;0.38;;;12.20;99.90;;;;;;4957214;28;20721;-66
2021/10/05 08:25:18;;;;;;;0.85;0.85;;;12.30;99.90;;;;;;4956997;28;20622;-66
2021/10/05 08:27:45;;;;;;;1.90;1.80;;;12.40;99.90;;;;;;4956928;28;20262;-66
2021/10/05 08:30:12;;;;;;;2.80;0.95;;;12.50;99.90;;;;;;4956798;28;20198;-66
2021/10/05 08:32:38;;;;;;;1.15;1.15;;;12.40;99.90;;;;;;4956885;28;20212;-66
2021/10/05 08:35:04;;;;;;;0.80;0.80;;;12.60;99.90;;;;;;4957057;28;20211;-67
2021/10/05 08:37:30;;;;;;;0.40;0.32;;;12.70;99.90;;;;;;4956592;28;20266;-66
2021/10/05 08:39:56;;;;;;;0.30;0.10;;;12.70;99.90;;;;;;4956863;28;20185;-68
2021/10/05 08:42:22;;;;;;;0.30;0.10;;;12.90;99.90;;;;;;4955992;28;20505;-68
2021/10/05 08:44:48;;;;;;;2.90;1.38;;;12.90;99.90;;;;;;4957217;28;20181;-68
2021/10/05 08:47:15;;;;;;;0.65;0.63;;;12.80;99.90;;;;;;4957245;28;20173;-68
2021/10/05 08:49:43;;;;;;;0.30;0.10;;;12.80;99.90;;;;;;4956695;28;20180;-68
2021/10/05 08:52:09;;;;;;;0.40;0.20;;;12.90;99.90;;;;;;4956788;28;20194;-68
2021/10/05 08:54:35;;;;;;;1.02;1.02;;;12.80;99.90;;;;;;4956600;28;20649;-68
2021/10/05 08:57:01;;;;;;;3.50;1.43;;;12.70;99.90;;;;;;4957088;28;20208;-68
2021/10/05 08:59:26;;;;;;;0.50;0.50;;;12.80;99.90;;;;;;4956795;28;20467;-65
2021/10/05 09:01:53;;;;;;;0.50;0.37;;;12.70;99.90;;;;;;4956981;28;20199;-66
2021/10/05 09:04:21;;;;;;;0.60;0.50;;;12.70;99.90;;;;;;4957150;28;20543;-65
2021/10/05 09:06:54;;;;;;;0.30;0.20;;;12.70;99.90;;;;;;4957331;28;20689;-65
2021/10/05 09:09:20;;;;;;;0.30;0.20;;;12.80;99.90;;;;;;4956991;28;20557;-68
2021/10/05 09:11:51;;;;;;;0.60;0.50;;;13.00;99.90;;;;;;4958381;28;20192;-68
2021/10/05 09:14:16;;;;;;;0.30;0.20;;;13.00;99.90;;;;;;4957644;28;20184;-66
2021/10/05 09:16:43;;;;;;;0.30;0.20;;;13.10;99.90;;;;;;4957092;28;20212;-65
2021/10/05 09:19:17;;;;;;;1.40;1.30;;;13.20;99.90;;;;;;4957179;28;20246;-66
2021/10/05 09:21:46;;;;;;;2.35;1.60;;;13.30;99.90;;;;;;4956965;28;20258;-65
2021/10/05 09:24:15;;;;;;;1.52;1.42;;;13.30;99.90;;;;;;4956248;28;20184;-65
2021/10/05 09:26:40;;;;;;;0.45;0.30;;;13.10;99.90;;;;;;4956162;28;20176;-66
2021/10/05 09:29:21;;;;;;;0.30;0.17;;;13.20;99.90;;;;;;4956181;28;20696;-67
2021/10/05 09:32:04;;;;;;;1.42;1.42;;;13.40;99.90;;;;;;4956924;28;20235;-65
2021/10/05 09:34:46;;;;;;;0.30;0.20;;;13.60;99.90;;;;;;4955500;29;20196;-65
2021/10/05 09:37:22;;;;;;;0.40;0.38;;;13.70;99.90;;;;;;4956071;29;20208;-65
2021/10/05 09:39:50;;;;;;;1.65;1.55;;;13.80;99.90;;;;;;4954042;29;20191;-66
2021/10/05 09:42:26;;;;;;;0.30;0.20;;;13.60;99.90;;;;;;4955445;29;20183;-65
2021/10/05 09:45:00;;;;;;;0.88;0.82;;;13.40;99.90;;;;;;4955492;28;20184;-65
2021/10/05 09:47:33;;;;;;;1.52;1.15;;;13.50;99.90;;;;;;4955771;28;20275;-67
2021/10/05 09:50:00;;;;;;;0.30;0.20;;;13.60;99.90;;;;;;4955718;28;20258;-66
2021/10/05 09:52:38;;;;;;;0.50;0.40;;;13.80;99.90;;;;;;4955694;28;20184;-65
2021/10/05 09:55:04;;;;;;;1.50;1.40;;;13.70;99.90;;;;;;4953624;29;20564;-66
2021/10/05 09:57:30;;;;;;;0.50;0.43;;;13.60;99.90;;;;;;4955378;29;20208;-66
2021/10/05 09:59:56;;;;;;;0.30;0.30;;;13.60;99.90;;;;;;4954770;28;20172;-66
2021/10/05 10:02:22;;;;;;;1.50;0.87;;;13.50;99.90;;;;;;4954962;28;20242;-65
2021/10/05 10:04:48;;;;;;;2.67;2.50;;;13.60;99.90;;;;;;4955007;29;20196;-65
2021/10/05 10:07:14;;;;;;;1.70;0.75;;;13.60;99.90;;;;;;4953920;28;20188;-66
2021/10/05 10:09:40;;;;;;;0.63;0.63;;;13.70;99.90;;;;;;4954760;28;20622;-65
2021/10/05 10:12:06;;;;;;;0.30;0.20;;;13.60;99.90;;;;;;4955423;28;20254;-66
2021/10/05 10:14:31;;;;;;;2.43;0.93;;;13.70;99.90;;;;;;4960814;29;20917;-65
2021/10/05 10:16:57;;;;;;;0.40;0.30;;;13.80;99.90;;;;;;4962221;28;20215;-67
2021/10/05 10:19:29;;;;;;;1.10;1.00;;;13.90;99.90;;;;;;4962159;28;20246;-66
2021/10/05 10:22:05;;;;;;;0.30;0.20;;;13.70;99.90;;;;;;4961183;29;20180;-66
2021/10/05 10:24:53;;;;;;;0.30;0.20;;;13.60;99.90;;;;;;4961138;28;20179;-66
2021/10/05 10:27:20;;;;;;;0.30;0.20;;;13.50;99.90;;;;;;4961641;28;20275;-67
2021/10/05 10:29:47;;;;;;;0.50;0.30;;;13.50;99.90;;;;;;4961356;28;20685;-66
2021/10/05 10:32:24;;;;;;;1.30;0.45;;;13.60;99.90;;;;;;4961868;29;20231;-66
2021/10/05 10:35:07;;;;;;;1.10;1.10;;;13.50;99.90;;;;;;4961562;28;20191;-66
2021/10/05 10:37:48;;;;;;;0.60;0.60;;;13.50;99.90;;;;;;4961472;29;20246;-66
2021/10/05 10:40:16;;;;;;;3.13;1.05;;;13.60;99.90;;;;;;4961449;29;20176;-66
2021/10/05 10:42:43;;;;;;;0.30;0.20;;;13.70;99.90;;;;;;4961517;28;20266;-66
2021/10/05 10:45:11;;;;;;;0.40;0.30;;;13.80;99.90;;;;;;4961400;28;20633;-66
2021/10/05 10:47:42;;;;;;;0.30;0.20;;;14.00;99.90;;;;;;4961326;28;20192;-67
2021/10/05 10:50:09;;;;;;;1.98;0.43;;;14.30;99.90;;;;;;4961354;28;20188;-66
2021/10/05 10:52:38;;;;;;;0.30;0.20;;;14.40;99.90;;;;;;4961431;28;20194;-66
2021/10/05 10:55:06;;;;;;;0.30;0.20;;;14.50;99.90;;;;;;4961526;28;20192;-66
2021/10/05 10:57:35;;;;;;;0.30;0.20;;;14.70;99.90;;;;;;4961297;28;20207;-66
2021/10/05 11:00:16;;;;;;;1.05;0.70;;;14.70;99.90;;;;;;4961229;28;20540;-66
2021/10/05 11:02:47;;;;;;;0.40;0.20;;;14.70;99.90;;;;;;4961269;29;20180;-66
2021/10/05 11:05:14;;;;;;;2.80;2.60;;;14.40;99.90;;;;;;4961827;28;20609;-66
2021/10/05 11:07:40;;;;;;;0.30;0.20;;;14.30;99.90;;;;;;4961798;28;20192;-67
2021/10/05 11:10:07;;;;;;;0.70;0.67;;;14.20;99.90;;;;;;4961612;28;20190;-66
2021/10/05 11:12:33;;;;;;;1.60;0.77;;;14.20;99.90;;;;;;4961770;28;20215;-66
2021/10/05 11:14:59;;;;;;;0.30;0.20;;;14.00;99.90;;;;;;4961650;28;20785;-66
2021/10/05 11:17:25;;;;;;;0.30;0.20;;;14.20;99.90;;;;;;4961616;29;20227;-66
2021/10/05 11:19:50;;;;;;;0.40;0.30;;;14.10;99.90;;;;;;4961275;29;20185;-66
2021/10/05 11:22:17;;;;;;;0.30;0.20;;;14.00;99.90;;;;;;4961665;28;20180;-66
2021/10/05 11:24:48;;;;;;;0.30;0.20;;;13.90;99.90;;;;;;4958857;28;20187;-65
2021/10/05 11:27:22;;;;;;;0.40;0.40;;;14.00;99.90;;;;;;4957476;29;20282;-66
2021/10/05 11:29:48;;;;;;;0.30;0.20;;;13.80;99.90;;;;;;4957352;29;20192;-65
2021/10/05 11:32:18;;;;;;;3.45;1.88;;;13.90;99.90;;;;;;4957958;28;20197;-65
2021/10/05 11:34:45;;;;;;;0.40;0.22;;;13.70;99.90;;;;;;4958135;28;20191;-65
2021/10/05 11:37:13;;;;;;;0.30;0.20;;;13.70;99.90;;;;;;4957244;29;20207;-65
2021/10/05 11:39:41;;;;;;;0.68;0.65;;;14.00;99.90;;;;;;4957295;28;20496;-65
2021/10/05 11:42:10;;;;;;;0.30;0.20;;;13.80;99.90;;;;;;4961993;28;20195;-65
2021/10/05 11:44:45;;;;;;;0.45;0.45;;;13.80;99.90;;;;;;4960598;28;20180;-65
2021/10/05 11:47:12;;;;;;;0.40;0.30;;;13.60;99.90;;;;;;4970846;28;20195;-65
2021/10/05 11:49:46;;;;;;;0.40;0.40;;;13.50;99.90;;;;;;4960955;28;20295;-65
2021/10/05 11:52:17;;;;;;;0.30;0.30;;;13.60;99.90;;;;;;4956958;28;20177;-65
2021/10/05 11:54:42;;;;;;;0.30;0.20;;;13.80;99.90;;;;;;4956427;28;20191;-65
2021/10/05 11:57:18;;;;;;;1.07;1.07;;;14.00;99.90;;;;;;4957538;28;20200;-66
2021/10/05 11:59:45;;;;;;;0.32;0.30;;;14.40;99.90;;;;;;4957386;28;20377;-67
2021/10/05 12:02:17;;;;;;;0.30;0.17;;;14.50;99.90;;;;;;4956127;29;20195;-65
2021/10/05 12:04:46;;;;;;;0.70;0.70;;;14.70;99.90;;;;;;4957178;28;20275;-65
2021/10/05 12:07:14;;;;;;;0.30;0.20;;;14.90;99.90;;;;;;4957532;28;20215;-65
2021/10/05 12:09:40;;;;;;;0.30;0.20;;;15.00;99.90;;;;;;4957441;29;20212;-66
2021/10/05 12:12:11;;;;;;;0.40;0.10;;;15.20;99.90;;;;;;4957571;28;20219;-66
2021/10/05 12:15:02;;;;;;;0.30;0.10;;;15.50;99.90;;;;;;4957465;28;20629;-66
2021/10/05 12:17:29;;;;;;;0.40;0.20;;;15.10;99.90;;;;;;4957180;28;20216;-66
2021/10/05 12:19:58;;;;;;;0.85;0.85;;;14.80;99.90;;;;;;4957027;28;20236;-66
2021/10/05 12:22:28;;;;;;;0.30;0.20;;;14.80;99.90;;;;;;4957132;28;20673;-66
2021/10/05 12:24:58;;;;;;;0.40;0.20;;;14.40;99.90;;;;;;4957327;28;20279;-66
2021/10/05 12:27:26;;;;;;;1.17;1.08;;;14.60;99.90;;;;;;4957211;28;20208;-66
2021/10/05 12:30:02;;;;;;;0.30;0.20;;;14.40;99.90;;;;;;4955927;28;20227;-66
2021/10/05 12:32:37;;;;;;;2.65;2.55;;;14.60;99.90;;;;;;4957032;28;20199;-66
2021/10/05 12:35:27;;;;;;;0.30;0.20;;;14.60;99.90;;;;;;4957079;28;20179;-66
2021/10/05 12:38:08;;;;;;;0.50;0.40;;;14.50;99.90;;;;;;4956555;29;20242;-66
2021/10/05 12:40:50;;;;;;;0.40;0.30;;;14.50;99.90;;;;;;4957298;28;20180;-67
2021/10/05 12:43:24;;;;;;;0.30;0.20;;;14.60;99.90;;;;;;4957459;28;20645;-68
2021/10/05 12:45:59;;;;;;;1.55;1.45;;;14.70;99.90;;;;;;4957284;28;20533;-67
2021/10/05 12:48:38;;;;;;;0.30;0.15;;;14.60;99.90;;;;;;4957089;28;20203;-68